sensor_id;sensor_type;location;lat;lon;timestamp;pressure;altitude;pressure_sealevel;temperature;humidity
12146;BME280;6136;47.032;15.398;2023-01-29T00:00:28;98294.81;;;-0.12;100.00
12146;BME280;6136;47.032;15.398;2023-01-29T00:02:56;98298.22;;;-0.07;100.00
12146;BME280;6136;47.032;15.398;2023-01-29T00:05:26;98297.47;;;-0.16;100.00
12146;BME280;6136;47.032;15.398;2023-01-29T00:07:55;98307.78;;;-0.07;100.00
12146;BME280;6136;47.032;15.398;2023-01-29T00:10:24;98306.03;;;-0.05;100.00
12146;BME280;6136;47.032;15.398;2023-01-29T00:12:52;98306.03;;;-0.05;100.00
12146;BME280;6136;47.032;15.398;2023-01-29T00:15:20;98314.72;;;-0.03;100.00
12146;BME280;6136;47.032;15.398;2023-01-29T00:17:49;98313.91;;;-0.10;100.00
12146;BME280;6136;47.032;15.398;2023-01-29T00:20:17;98314.72;;;-0.06;100.00
12146;BME280;6136;47.032;15.398;2023-01-29T00:22:47;98316.50;;;-0.10;100.00
12146;BME280;6136;47.032;15.398;2023-01-29T00:25:15;98317.38;;;-0.11;100.00
12146;BME280;6136;47.032;15.398;2023-01-29T00:27:43;98306.09;;;-0.11;100.00
12146;BME280;6136;47.032;15.398;2023-01-29T00:30:12;98317.38;;;-0.11;100.00
12146;BME280;6136;47.032;15.398;2023-01-29T00:32:45;98305.22;;;-0.10;100.00
12146;BME280;6136;47.032;15.398;2023-01-29T00:35:13;98309.59;;;-0.12;100.00
12146;BME280;6136;47.032;15.398;2023-01-29T00:37:41;98313.91;;;-0.10;100.00
12146;BME280;6136;47.032;15.398;2023-01-29T00:40:12;98313.00;;;-0.07;100.00
12146;BME280;6136;47.032;15.398;2023-01-29T00:42:43;98309.56;;;-0.09;100.00
12146;BME280;6136;47.032;15.398;2023-01-29T00:45:29;98318.25;;;-0.13;100.00
12146;BME280;6136;47.032;15.398;2023-01-29T00:47:57;98314.78;;;-0.12;100.00
12146;BME280;6136;47.032;15.398;2023-01-29T00:50:25;98322.59;;;-0.14;100.00
12146;BME280;6136;47.032;15.398;2023-01-29T00:52:53;98320.00;;;-0.14;100.00
12146;BME280;6136;47.032;15.398;2023-01-29T00:55:23;98323.50;;;-0.16;100.00
12146;BME280;6136;47.032;15.398;2023-01-29T00:57:51;98320.88;;;-0.15;100.00
12146;BME280;6136;47.032;15.398;2023-01-29T01:00:19;98324.38;;;-0.16;100.00
12146;BME280;6136;47.032;15.398;2023-01-29T01:02:48;98312.25;;;-0.18;100.00
12146;BME280;6136;47.032;15.398;2023-01-29T01:05:33;98328.75;;;-0.19;100.00
12146;BME280;6136;47.032;15.398;2023-01-29T01:08:03;98315.72;;;-0.18;100.00
12146;BME280;6136;47.032;15.398;2023-01-29T01:10:59;98320.94;;;-0.21;100.00
12146;BME280;6136;47.032;15.398;2023-01-29T01:13:27;98320.94;;;-0.21;100.00
12146;BME280;6136;47.032;15.398;2023-01-29T01:15:56;98320.03;;;-0.15;100.00
12146;BME280;6136;47.032;15.398;2023-01-29T01:18:24;98322.66;;;-0.21;100.00
12146;BME280;6136;47.032;15.398;2023-01-29T01:20:56;98320.06;;;-0.21;100.00
12146;BME280;6136;47.032;15.398;2023-01-29T01:23:24;98313.16;;;-0.25;100.00
12146;BME280;6136;47.032;15.398;2023-01-29T01:25:53;98305.34;;;-0.22;100.00
12146;BME280;6136;47.032;15.398;2023-01-29T01:28:23;98327.06;;;-0.26;100.00
12146;BME280;6136;47.032;15.398;2023-01-29T01:30:51;98323.56;;;-0.25;100.00
12146;BME280;6136;47.032;15.398;2023-01-29T01:33:19;98324.44;;;-0.25;100.00
12146;BME280;6136;47.032;15.398;2023-01-29T01:35:47;98330.47;;;-0.21;100.00
12146;BME280;6136;47.032;15.398;2023-01-29T01:38:15;98335.75;;;-0.27;100.00
12146;BME280;6136;47.032;15.398;2023-01-29T01:40:44;98333.13;;;-0.27;100.00
12146;BME280;6136;47.032;15.398;2023-01-29T01:43:13;98340.06;;;-0.28;100.00
12146;BME280;6136;47.032;15.398;2023-01-29T01:45:42;98342.66;;;-0.23;100.00
12146;BME280;6136;47.032;15.398;2023-01-29T01:48:15;98348.75;;;-0.24;100.00
12146;BME280;6136;47.032;15.398;2023-01-29T01:50:46;98351.31;;;-0.18;100.00
12146;BME280;6136;47.032;15.398;2023-01-29T01:53:19;98345.28;;;-0.23;100.00
12146;BME280;6136;47.032;15.398;2023-01-29T01:55:51;98340.97;;;-0.30;100.00
12146;BME280;6136;47.032;15.398;2023-01-29T01:58:25;98356.56;;;-0.27;100.00
12146;BME280;6136;47.032;15.398;2023-01-29T02:00:56;98347.88;;;-0.26;100.00
12146;BME280;6136;47.032;15.398;2023-01-29T02:03:27;98354.84;;;-0.27;100.00
12146;BME280;6136;47.032;15.398;2023-01-29T02:06:14;98353.09;;;-0.26;100.00
12146;BME280;6136;47.032;15.398;2023-01-29T02:09:04;98348.75;;;-0.26;100.00
12146;BME280;6136;47.032;15.398;2023-01-29T02:11:51;98340.94;;;-0.24;100.00
12146;BME280;6136;47.032;15.398;2023-01-29T02:14:19;98351.34;;;-0.23;100.00
12146;BME280;6136;47.032;15.398;2023-01-29T02:16:50;98346.16;;;-0.24;100.00
12146;BME280;6136;47.032;15.398;2023-01-29T02:19:26;98351.41;;;-0.30;100.00
12146;BME280;6136;47.032;15.398;2023-01-29T02:22:22;98363.50;;;-0.26;100.00
12146;BME280;6136;47.032;15.398;2023-01-29T02:25:01;98365.25;;;-0.22;100.00
12146;BME280;6136;47.032;15.398;2023-01-29T02:28:06;98362.63;;;-0.22;100.00
12146;BME280;6136;47.032;15.398;2023-01-29T02:30:43;98365.19;;;-0.19;100.00
12146;BME280;6136;47.032;15.398;2023-01-29T02:33:18;98368.72;;;-0.26;100.00
12146;BME280;6136;47.032;15.398;2023-01-29T02:35:55;98366.97;;;-0.24;100.00
12146;BME280;6136;47.032;15.398;2023-01-29T02:38:30;98362.66;;;-0.25;100.00
12146;BME280;6136;47.032;15.398;2023-01-29T02:41:07;98365.25;;;-0.27;100.00
12146;BME280;6136;47.032;15.398;2023-01-29T02:43:44;98374.75;;;-0.21;100.00
12146;BME280;6136;47.032;15.398;2023-01-29T02:46:17;98368.72;;;-0.23;100.00
12146;BME280;6136;47.032;15.398;2023-01-29T02:48:56;98372.16;;;-0.18;100.00
12146;BME280;6136;47.032;15.398;2023-01-29T02:51:32;98378.28;;;-0.28;100.00
12146;BME280;6136;47.032;15.398;2023-01-29T02:54:05;98373.97;;;-0.32;100.00
12146;BME280;6136;47.032;15.398;2023-01-29T02:56:38;98379.16;;;-0.29;100.00
12146;BME280;6136;47.032;15.398;2023-01-29T02:59:11;98378.34;;;-0.39;100.00
12146;BME280;6136;47.032;15.398;2023-01-29T03:01:47;98389.59;;;-0.32;100.00
12146;BME280;6136;47.032;15.398;2023-01-29T03:04:19;98389.63;;;-0.38;100.00
12146;BME280;6136;47.032;15.398;2023-01-29T03:06:54;98382.59;;;-0.23;100.00
12146;BME280;6136;47.032;15.398;2023-01-29T03:09:29;98372.19;;;-0.26;100.00
12146;BME280;6136;47.032;15.398;2023-01-29T03:12:04;98374.78;;;-0.24;100.00
12146;BME280;6136;47.032;15.398;2023-01-29T03:14:50;98370.50;;;-0.31;100.00
12146;BME280;6136;47.032;15.398;2023-01-29T03:17:39;98383.53;;;-0.31;100.00
12146;BME280;6136;47.032;15.398;2023-01-29T03:20:12;98382.66;;;-0.30;100.00
12146;BME280;6136;47.032;15.398;2023-01-29T03:22:44;98377.44;;;-0.30;100.00
12146;BME280;6136;47.032;15.398;2023-01-29T03:25:17;98375.66;;;-0.27;100.00
12146;BME280;6136;47.032;15.398;2023-01-29T03:28:05;98373.94;;;-0.29;100.00
12146;BME280;6136;47.032;15.398;2023-01-29T03:30:59;98380.88;;;-0.24;100.00
12146;BME280;6136;47.032;15.398;2023-01-29T03:34:00;98388.69;;;-0.28;100.00
12146;BME280;6136;47.032;15.398;2023-01-29T03:36:33;98382.63;;;-0.29;100.00
12146;BME280;6136;47.032;15.398;2023-01-29T03:39:07;98390.47;;;-0.33;100.00
12146;BME280;6136;47.032;15.398;2023-01-29T03:41:41;98392.19;;;-0.32;100.00
12146;BME280;6136;47.032;15.398;2023-01-29T03:44:16;98389.59;;;-0.35;100.00
12146;BME280;6136;47.032;15.398;2023-01-29T03:46:51;98389.63;;;-0.38;100.00
12146;BME280;6136;47.032;15.398;2023-01-29T03:49:30;98391.34;;;-0.34;100.00
12146;BME280;6136;47.032;15.398;2023-01-29T03:52:05;98386.13;;;-0.34;100.00
12146;BME280;6136;47.032;15.398;2023-01-29T03:54:43;98389.59;;;-0.32;100.00
12146;BME280;6136;47.032;15.398;2023-01-29T03:57:25;98397.41;;;-0.31;100.00
12146;BME280;6136;47.032;15.398;2023-01-29T04:00:03;98388.72;;;-0.36;100.00
12146;BME280;6136;47.032;15.398;2023-01-29T04:03:01;98387.88;;;-0.36;100.00
12146;BME280;6136;47.032;15.398;2023-01-29T04:05:38;98395.75;;;-0.50;100.00
12146;BME280;6136;47.032;15.398;2023-01-29T04:08:22;98386.25;;;-0.53;100.00
12146;BME280;6136;47.032;15.398;2023-01-29T04:10:55;98394.06;;;-0.57;100.00
12146;BME280;6136;47.032;15.398;2023-01-29T04:13:26;98389.75;;;-0.60;100.00
12146;BME280;6136;47.032;15.398;2023-01-29T04:15:57;98382.84;;;-0.67;100.00
12146;BME280;6136;47.032;15.398;2023-01-29T04:18:49;98387.16;;;-0.63;100.00
12146;BME280;6136;47.032;15.398;2023-01-29T04:21:24;98398.44;;;-0.61;100.00
12146;BME280;6136;47.032;15.398;2023-01-29T04:23:52;98391.50;;;-0.66;100.00
12146;BME280;6136;47.032;15.398;2023-01-29T04:26:32;98396.75;;;-0.68;100.00
12146;BME280;6136;47.032;15.398;2023-01-29T04:29:19;98394.97;;;-0.66;100.00
12146;BME280;6136;47.032;15.398;2023-01-29T04:31:59;98401.06;;;-0.67;100.00
12146;BME280;6136;47.032;15.398;2023-01-29T04:34:42;98397.59;;;-0.67;100.00
12146;BME280;6136;47.032;15.398;2023-01-29T04:37:22;98395.00;;;-0.67;100.00
12146;BME280;6136;47.032;15.398;2023-01-29T04:39:58;98394.13;;;-0.68;100.00
12146;BME280;6136;47.032;15.398;2023-01-29T04:42:34;98392.41;;;-0.72;100.00
12146;BME280;6136;47.032;15.398;2023-01-29T04:45:10;98402.84;;;-0.80;100.00
12146;BME280;6136;47.032;15.398;2023-01-29T04:47:46;98401.06;;;-0.73;100.00
12146;BME280;6136;47.032;15.398;2023-01-29T04:50:21;98393.31;;;-0.85;100.00
12146;BME280;6136;47.032;15.398;2023-01-29T04:52:57;98395.94;;;-0.85;100.00
12146;BME280;6136;47.032;15.398;2023-01-29T04:55:33;98401.13;;;-0.85;100.00
12146;BME280;6136;47.032;15.398;2023-01-29T04:58:06;98400.28;;;-0.84;100.00
12146;BME280;6136;47.032;15.398;2023-01-29T05:00:40;98395.94;;;-0.88;100.00
12146;BME280;6136;47.032;15.398;2023-01-29T05:03:11;98392.50;;;-0.93;100.00
12146;BME280;6136;47.032;15.398;2023-01-29T05:05:44;98381.22;;;-0.95;100.00
12146;BME280;6136;47.032;15.398;2023-01-29T05:08:16;98382.06;;;-0.96;100.00
12146;BME280;6136;47.032;15.398;2023-01-29T05:10:45;98386.44;;;-0.98;100.00
12146;BME280;6136;47.032;15.398;2023-01-29T05:13:16;98390.75;;;-0.93;100.00
12146;BME280;6136;47.032;15.398;2023-01-29T05:15:48;98392.50;;;-0.98;100.00
12146;BME280;6136;47.032;15.398;2023-01-29T05:18:17;98396.88;;;-1.10;100.00
12146;BME280;6136;47.032;15.398;2023-01-29T05:20:47;98396.88;;;-1.10;100.00
12146;BME280;6136;47.032;15.398;2023-01-29T05:23:16;98396.00;;;-1.08;100.00
12146;BME280;6136;47.032;15.398;2023-01-29T05:25:45;98391.66;;;-1.07;100.00
12146;BME280;6136;47.032;15.398;2023-01-29T05:28:13;98393.41;;;-1.06;100.00
12146;BME280;6136;47.032;15.398;2023-01-29T05:30:44;98402.97;;;-1.16;100.00
12146;BME280;6136;47.032;15.398;2023-01-29T05:33:14;98399.50;;;-1.23;100.00
12146;BME280;6136;47.032;15.398;2023-01-29T05:35:43;98402.13;;;-1.20;100.00
12146;BME280;6136;47.032;15.398;2023-01-29T05:38:13;98397.78;;;-1.31;100.00
12146;BME280;6136;47.032;15.398;2023-01-29T05:40:42;98408.25;;;-1.49;100.00
12146;BME280;6136;47.032;15.398;2023-01-29T05:43:15;98407.38;;;-1.41;100.00
12146;BME280;6136;47.032;15.398;2023-01-29T05:45:51;98403.03;;;-1.59;100.00
12146;BME280;6136;47.032;15.398;2023-01-29T05:48:20;98396.13;;;-1.66;100.00
12146;BME280;6136;47.032;15.398;2023-01-29T05:50:49;98394.38;;;-1.77;100.00
12146;BME280;6136;47.032;15.398;2023-01-29T05:53:18;98393.53;;;-1.81;100.00
12146;BME280;6136;47.032;15.398;2023-01-29T05:55:47;98398.72;;;-1.88;100.00
12146;BME280;6136;47.032;15.398;2023-01-29T05:58:15;98401.31;;;-1.94;100.00
12146;BME280;6136;47.032;15.398;2023-01-29T06:00:45;98406.50;;;-1.98;100.00
12146;BME280;6136;47.032;15.398;2023-01-29T06:03:14;98413.44;;;-2.03;100.00
12146;BME280;6136;47.032;15.398;2023-01-29T06:05:42;98421.22;;;-2.10;100.00
12146;BME280;6136;47.032;15.398;2023-01-29T06:08:10;98419.47;;;-2.19;100.00
12146;BME280;6136;47.032;15.398;2023-01-29T06:10:40;98417.72;;;-2.24;100.00
12146;BME280;6136;47.032;15.398;2023-01-29T06:13:08;98430.69;;;-2.29;100.00
12146;BME280;6136;47.032;15.398;2023-01-29T06:15:38;98426.34;;;-2.36;100.00
12146;BME280;6136;47.032;15.398;2023-01-29T06:18:06;98425.47;;;-2.41;100.00
12146;BME280;6136;47.032;15.398;2023-01-29T06:20:35;98431.50;;;-2.42;100.00
12146;BME280;6136;47.032;15.398;2023-01-29T06:23:04;98434.13;;;-2.36;100.00
12146;BME280;6136;47.032;15.398;2023-01-29T06:25:32;98423.72;;;-2.47;100.00
12146;BME280;6136;47.032;15.398;2023-01-29T06:28:02;98428.06;;;-2.47;100.00
12146;BME280;6136;47.032;15.398;2023-01-29T06:30:30;98427.16;;;-2.51;100.00
12146;BME280;6136;47.032;15.398;2023-01-29T06:32:58;98428.88;;;-2.51;100.00
12146;BME280;6136;47.032;15.398;2023-01-29T06:35:27;98436.66;;;-2.57;100.00
12146;BME280;6136;47.032;15.398;2023-01-29T06:37:55;98434.06;;;-2.62;100.00
12146;BME280;6136;47.032;15.398;2023-01-29T06:40:24;98430.63;;;-2.59;100.00
12146;BME280;6136;47.032;15.398;2023-01-29T06:42:52;98443.59;;;-2.55;100.00
12146;BME280;6136;47.032;15.398;2023-01-29T06:45:21;98436.66;;;-2.51;100.00
12146;BME280;6136;47.032;15.398;2023-01-29T06:47:50;98434.09;;;-2.53;100.00
12146;BME280;6136;47.032;15.398;2023-01-29T06:50:18;98447.06;;;-2.51;100.00
12146;BME280;6136;47.032;15.398;2023-01-29T06:52:46;98444.44;;;-2.56;100.00
12146;BME280;6136;47.032;15.398;2023-01-29T06:55:14;98451.34;;;-2.58;100.00
12146;BME280;6136;47.032;15.398;2023-01-29T06:57:42;98447.06;;;-2.51;100.00
12146;BME280;6136;47.032;15.398;2023-01-29T07:00:12;98454.88;;;-2.42;100.00
12146;BME280;6136;47.032;15.398;2023-01-29T07:02:42;98467.00;;;-2.38;100.00
12146;BME280;6136;47.032;15.398;2023-01-29T07:05:11;98457.50;;;-2.31;100.00
12146;BME280;6136;47.032;15.398;2023-01-29T07:07:39;98453.19;;;-2.32;100.00
12146;BME280;6136;47.032;15.398;2023-01-29T07:10:08;98452.34;;;-2.25;100.00
12146;BME280;6136;47.032;15.398;2023-01-29T07:12:36;98451.47;;;-2.24;100.00
12146;BME280;6136;47.032;15.398;2023-01-29T07:15:05;98450.63;;;-2.14;100.00
12146;BME280;6136;47.032;15.398;2023-01-29T07:17:35;98444.59;;;-2.09;100.00
12146;BME280;6136;47.032;15.398;2023-01-29T07:20:06;98444.59;;;-2.01;100.00
12146;BME280;6136;47.032;15.398;2023-01-29T07:22:35;98444.59;;;-1.84;100.00
12146;BME280;6136;47.032;15.398;2023-01-29T07:25:04;98431.63;;;-1.57;100.00
12146;BME280;6136;47.032;15.398;2023-01-29T07:27:32;98425.53;;;-1.36;100.00
12146;BME280;6136;47.032;15.398;2023-01-29T07:30:00;98427.22;;;-1.09;100.00
12146;BME280;6136;47.032;15.398;2023-01-29T07:32:28;98418.50;;;-0.93;100.00
12146;BME280;6136;47.032;15.398;2023-01-29T07:34:56;98411.41;;;-0.56;100.00
12146;BME280;6136;47.032;15.398;2023-01-29T07:37:26;98420.06;;;-0.51;100.00
12146;BME280;6136;47.032;15.398;2023-01-29T07:39:54;98422.59;;;-0.34;100.00
12146;BME280;6136;47.032;15.398;2023-01-29T07:42:22;98415.50;;;-0.11;100.00
12146;BME280;6136;47.032;15.398;2023-01-29T07:44:50;98413.72;;;-0.03;100.00
12146;BME280;6136;47.032;15.398;2023-01-29T07:47:18;98414.59;;;-0.04;100.00
12146;BME280;6136;47.032;15.398;2023-01-29T07:49:46;98416.38;;;-0.11;100.00
12146;BME280;6136;47.032;15.398;2023-01-29T07:52:14;98409.53;;;-0.22;100.00
12146;BME280;6136;47.032;15.398;2023-01-29T07:54:48;98405.09;;;-0.11;100.00
12146;BME280;6136;47.032;15.398;2023-01-29T07:57:17;98413.75;;;-0.09;100.00
12146;BME280;6136;47.032;15.398;2023-01-29T07:59:45;98407.69;;;-0.10;100.00
12146;BME280;6136;47.032;15.398;2023-01-29T08:02:13;98405.91;;;-0.05;100.00
12146;BME280;6136;47.032;15.398;2023-01-29T08:04:41;98408.53;;;-0.06;100.00
12146;BME280;6136;47.032;15.398;2023-01-29T08:07:09;98401.56;;;-0.07;100.00
12146;BME280;6136;47.032;15.398;2023-01-29T08:09:37;98411.09;;;-0.02;100.00
12146;BME280;6136;47.032;15.398;2023-01-29T08:12:07;98407.59;;;0.06;100.00
12146;BME280;6136;47.032;15.398;2023-01-29T08:14:35;98410.25;;;-0.01;100.00
12146;BME280;6136;47.032;15.398;2023-01-29T08:17:03;98410.19;;;0.07;100.00
12146;BME280;6136;47.032;15.398;2023-01-29T08:19:32;98407.66;;;-0.07;100.00
12146;BME280;6136;47.032;15.398;2023-01-29T08:22:00;98421.59;;;-0.11;100.00
12146;BME280;6136;47.032;15.398;2023-01-29T08:24:28;98405.84;;;0.02;100.00
12146;BME280;6136;47.032;15.398;2023-01-29T08:27:17;98414.44;;;0.20;100.00
12146;BME280;6136;47.032;15.398;2023-01-29T08:29:45;98410.97;;;0.18;100.00
12146;BME280;6136;47.032;15.398;2023-01-29T08:32:13;98413.44;;;0.33;100.00
12146;BME280;6136;47.032;15.398;2023-01-29T08:34:42;98413.38;;;0.41;100.00
12146;BME280;6136;47.032;15.398;2023-01-29T08:37:10;98413.38;;;0.39;100.00
12146;BME280;6136;47.032;15.398;2023-01-29T08:39:38;98415.06;;;0.50;100.00
12146;BME280;6136;47.032;15.398;2023-01-29T08:42:06;98416.69;;;0.60;100.00
12146;BME280;6136;47.032;15.398;2023-01-29T08:44:35;98418.34;;;0.70;100.00
12146;BME280;6136;47.032;15.398;2023-01-29T08:47:03;98419.09;;;0.81;100.00
12146;BME280;6136;47.032;15.398;2023-01-29T08:49:31;98422.47;;;0.89;100.00
12146;BME280;6136;47.032;15.398;2023-01-29T08:51:59;98427.50;;;1.10;100.00
12146;BME280;6136;47.032;15.398;2023-01-29T08:54:29;98421.34;;;1.16;100.00
12146;BME280;6136;47.032;15.398;2023-01-29T08:56:57;98426.22;;;1.45;100.00
12146;BME280;6136;47.032;15.398;2023-01-29T08:59:25;98430.19;;;1.73;100.00
12146;BME280;6136;47.032;15.398;2023-01-29T09:01:55;98425.72;;;1.81;100.00
12146;BME280;6136;47.032;15.398;2023-01-29T09:04:23;98440.34;;;1.96;100.00
12146;BME280;6136;47.032;15.398;2023-01-29T09:06:51;98440.03;;;2.17;100.00
12146;BME280;6136;47.032;15.398;2023-01-29T09:09:19;98447.81;;;2.22;100.00
12146;BME280;6136;47.032;15.398;2023-01-29T09:11:47;98444.97;;;2.37;100.00
12146;BME280;6136;47.032;15.398;2023-01-29T09:14:16;98445.75;;;2.42;100.00
12146;BME280;6136;47.032;15.398;2023-01-29T09:16:44;98449.91;;;2.54;100.00
12146;BME280;6136;47.032;15.398;2023-01-29T09:19:13;98445.66;;;2.48;100.00
12146;BME280;6136;47.032;15.398;2023-01-29T09:21:41;98448.00;;;2.63;100.00
12146;BME280;6136;47.032;15.398;2023-01-29T09:24:10;98436.84;;;3.03;100.00
12146;BME280;6136;47.032;15.398;2023-01-29T09:26:38;98441.41;;;3.38;100.00
12146;BME280;6136;47.032;15.398;2023-01-29T09:29:07;98444.19;;;3.73;100.00
12146;BME280;6136;47.032;15.398;2023-01-29T09:31:36;98452.97;;;3.71;100.00
12146;BME280;6136;47.032;15.398;2023-01-29T09:34:04;98444.75;;;4.26;100.00
12146;BME280;6136;47.032;15.398;2023-01-29T09:36:34;98442.47;;;4.83;99.71
12146;BME280;6136;47.032;15.398;2023-01-29T09:39:02;98439.72;;;5.22;94.95
12146;BME280;6136;47.032;15.398;2023-01-29T09:41:41;98449.66;;;5.74;90.46
12146;BME280;6136;47.032;15.398;2023-01-29T09:44:16;98444.00;;;6.17;84.54
12146;BME280;6136;47.032;15.398;2023-01-29T09:46:47;98444.00;;;6.45;85.12
12146;BME280;6136;47.032;15.398;2023-01-29T09:49:21;98449.47;;;6.39;77.44
12146;BME280;6136;47.032;15.398;2023-01-29T09:51:56;98430.16;;;6.92;74.96
12146;BME280;6136;47.032;15.398;2023-01-29T09:54:28;98430.31;;;6.88;70.79
12146;BME280;6136;47.032;15.398;2023-01-29T09:56:59;98434.47;;;6.95;67.28
12146;BME280;6136;47.032;15.398;2023-01-29T09:59:29;98439.78;;;6.93;70.66
12146;BME280;6136;47.032;15.398;2023-01-29T10:02:06;98441.25;;;6.21;72.14
12146;BME280;6136;47.032;15.398;2023-01-29T10:05:09;98445.34;;;5.71;76.97
12146;BME280;6136;47.032;15.398;2023-01-29T10:10:48;98435.50;;;5.16;80.33
12146;BME280;6136;47.032;15.398;2023-01-29T10:13:27;98445.59;;;4.65;83.68
12146;BME280;6136;47.032;15.398;2023-01-29T10:16:08;98440.59;;;4.17;84.23
12146;BME280;6136;47.032;15.398;2023-01-29T10:19:23;98430.81;;;4.24;85.27
12146;BME280;6136;47.032;15.398;2023-01-29T10:22:17;98426.00;;;3.66;88.43
12146;BME280;6136;47.032;15.398;2023-01-29T10:24:53;98421.19;;;3.86;88.04
12146;BME280;6136;47.032;15.398;2023-01-29T10:27:26;98424.44;;;3.97;86.96
12146;BME280;6136;47.032;15.398;2023-01-29T10:29:59;98420.72;;;4.07;84.48
12146;BME280;6136;47.032;15.398;2023-01-29T10:32:29;98421.38;;;4.15;83.28
12146;BME280;6136;47.032;15.398;2023-01-29T10:35:02;98417.97;;;4.13;85.37
12146;BME280;6136;47.032;15.398;2023-01-29T10:37:36;98417.09;;;4.13;86.82
12146;BME280;6136;47.032;15.398;2023-01-29T10:40:19;98409.66;;;4.32;83.72
12146;BME280;6136;47.032;15.398;2023-01-29T10:42:52;98408.44;;;4.45;84.64
12146;BME280;6136;47.032;15.398;2023-01-29T10:45:30;98409.34;;;4.79;81.22
12146;BME280;6136;47.032;15.398;2023-01-29T10:48:28;98407.16;;;4.96;79.78
12146;BME280;6136;47.032;15.398;2023-01-29T10:51:07;98408.69;;;4.71;82.96
12146;BME280;6136;47.032;15.398;2023-01-29T10:53:47;98415.50;;;4.78;81.40
12146;BME280;6136;47.032;15.398;2023-01-29T10:56:43;98410.31;;;4.40;84.21
12146;BME280;6136;47.032;15.398;2023-01-29T10:59:27;98410.75;;;3.84;89.87
12146;BME280;6136;47.032;15.398;2023-01-29T11:01:59;98405.63;;;3.78;91.81
12146;BME280;6136;47.032;15.398;2023-01-29T11:04:30;98403.91;;;3.77;89.43
12146;BME280;6136;47.032;15.398;2023-01-29T11:06:59;98400.97;;;3.51;90.52
12146;BME280;6136;47.032;15.398;2023-01-29T11:09:32;98399.03;;;3.61;90.46
12146;BME280;6136;47.032;15.398;2023-01-29T11:12:08;98391.41;;;3.48;92.69
12146;BME280;6136;47.032;15.398;2023-01-29T11:14:42;98381.28;;;3.33;95.26
12146;BME280;6136;47.032;15.398;2023-01-29T11:17:14;98394.34;;;3.75;89.55
12146;BME280;6136;47.032;15.398;2023-01-29T11:19:45;98387.13;;;3.44;93.58
12146;BME280;6136;47.032;15.398;2023-01-29T11:22:15;98382.66;;;3.49;90.82
12146;BME280;6136;47.032;15.398;2023-01-29T11:24:46;98391.66;;;3.36;93.63
12146;BME280;6136;47.032;15.398;2023-01-29T11:27:41;98384.97;;;3.23;94.51
12146;BME280;6136;47.032;15.398;2023-01-29T11:30:15;98383.34;;;3.16;94.68
12146;BME280;6136;47.032;15.398;2023-01-29T11:32:50;98373.41;;;2.89;98.80
12146;BME280;6136;47.032;15.398;2023-01-29T11:35:21;98371.84;;;2.80;100.00
12146;BME280;6136;47.032;15.398;2023-01-29T11:37:50;98368.50;;;2.72;100.00
12146;BME280;6136;47.032;15.398;2023-01-29T11:40:34;98367.16;;;2.50;99.63
12146;BME280;6136;47.032;15.398;2023-01-29T11:43:19;98363.97;;;2.31;100.00
12146;BME280;6136;47.032;15.398;2023-01-29T11:45:49;98364.06;;;2.25;100.00
12146;BME280;6136;47.032;15.398;2023-01-29T11:48:22;98362.56;;;2.12;100.00
12146;BME280;6136;47.032;15.398;2023-01-29T11:50:52;98348.59;;;2.13;100.00
12146;BME280;6136;47.032;15.398;2023-01-29T11:53:35;98344.38;;;2.04;100.00
12146;BME280;6136;47.032;15.398;2023-01-29T11:56:14;98338.94;;;2.16;100.00
12146;BME280;6136;47.032;15.398;2023-01-29T11:58:46;98345.03;;;2.17;100.00
12146;BME280;6136;47.032;15.398;2023-01-29T12:01:21;98345.13;;;2.11;100.00
12146;BME280;6136;47.032;15.398;2023-01-29T12:03:52;98338.28;;;2.04;100.00
12146;BME280;6136;47.032;15.398;2023-01-29T12:06:22;98329.47;;;2.09;100.00
12146;BME280;6136;47.032;15.398;2023-01-29T12:08:54;98317.22;;;2.13;100.00
12146;BME280;6136;47.032;15.398;2023-01-29T12:11:27;98324.19;;;2.12;100.00
12146;BME280;6136;47.032;15.398;2023-01-29T12:13:59;98327.16;;;1.92;100.00
12146;BME280;6136;47.032;15.398;2023-01-29T12:16:30;98334.13;;;1.90;100.00
12146;BME280;6136;47.032;15.398;2023-01-29T12:19:08;98328.84;;;1.93;100.00
12146;BME280;6136;47.032;15.398;2023-01-29T12:21:43;98329.69;;;1.95;100.00
12146;BME280;6136;47.032;15.398;2023-01-29T12:24:24;98344.38;;;2.04;100.00
12146;BME280;6136;47.032;15.398;2023-01-29T12:27:01;98326.72;;;2.17;100.00
12146;BME280;6136;47.032;15.398;2023-01-29T12:29:38;98326.09;;;2.03;100.00
12146;BME280;6136;47.032;15.398;2023-01-29T12:32:16;98315.28;;;2.24;100.00
12146;BME280;6136;47.032;15.398;2023-01-29T12:34:52;98313.53;;;2.23;100.00
12146;BME280;6136;47.032;15.398;2023-01-29T12:37:25;98312.03;;;2.10;100.00
12146;BME280;6136;47.032;15.398;2023-01-29T12:39:55;98314.13;;;1.89;100.00
12146;BME280;6136;47.032;15.398;2023-01-29T12:42:24;98319.00;;;2.11;100.00
12146;BME280;6136;47.032;15.398;2023-01-29T12:44:57;98313.72;;;2.14;100.00
12146;BME280;6136;47.032;15.398;2023-01-29T12:47:30;98313.78;;;2.09;100.00
12146;BME280;6136;47.032;15.398;2023-01-29T12:50:04;98309.53;;;2.02;100.00
12146;BME280;6136;47.032;15.398;2023-01-29T12:52:37;98296.34;;;2.10;100.00
12146;BME280;6136;47.032;15.398;2023-01-29T12:55:11;98298.28;;;1.99;100.00
12146;BME280;6136;47.032;15.398;2023-01-29T12:57:47;98297.06;;;2.19;100.00
12146;BME280;6136;47.032;15.398;2023-01-29T13:00:20;98290.56;;;1.91;100.00
12146;BME280;6136;47.032;15.398;2023-01-29T13:02:54;98287.59;;;2.14;100.00
12146;BME280;6136;47.032;15.398;2023-01-29T13:05:27;98278.94;;;2.09;100.00
12146;BME280;6136;47.032;15.398;2023-01-29T13:08:02;98272.69;;;2.16;100.00
12146;BME280;6136;47.032;15.398;2023-01-29T13:10:36;98277.63;;;1.85;100.00
12146;BME280;6136;47.032;15.398;2023-01-29T13:13:12;98276.50;;;2.00;100.00
12146;BME280;6136;47.032;15.398;2023-01-29T13:15:44;98270.34;;;2.02;100.00
12146;BME280;6136;47.032;15.398;2023-01-29T13:18:28;98278.03;;;2.10;100.00
12146;BME280;6136;47.032;15.398;2023-01-29T13:21:00;98285.88;;;2.10;100.00
12146;BME280;6136;47.032;15.398;2023-01-29T13:23:32;98268.47;;;2.09;100.00
12146;BME280;6136;47.032;15.398;2023-01-29T13:26:02;98259.84;;;2.04;100.00
12146;BME280;6136;47.032;15.398;2023-01-29T13:28:32;98266.84;;;2.02;100.00